ROMMA est une association bénévole à but non lucratif. Votre soutien est indispensable : ADHERER à ROMMA ou FAIRE un DON

Voiron - (38, Isère)

Voironnais (300 m)   Longitude: 05° 35' E   Latitude: 45° 23' N Station partenaire n°109
 

Détail journalier du     <<     >>

Température Precipitation Humidité Pression Vent Dir Rafale Dir. rafale Ensol.
Heure (°C) (mm) (%) (hPa) (km/h) (km/h) (min)
01:00 19.608610172N10ESE0
02:00 19.308610172SE13NNO0
03:00 18.909010171SE5SE0
04:00 18.609010163N11SE0
05:00 18.609110161SSE6ENE0
06:00 18.408910152NE13ESE0
07:00 18.308910163SE15SE0
08:00 19.008610163NE8NNO0
09:00 21.807410165E13E60
10:00 22.307310165E16E0
11:00 22.207510172ENE6NNE0
12:00 24.106710164SE13SE30
13:00 24.806210166N19NE0
14:00 24.906310169N21N0
15:00 25.2063101611N23NNO0
16:00 25.7061101511N26ONO0
17:00 24.1069101612NNO27NNO0
18:00 22.60.475101614N44N0
19:00 22.807610166ENE21NNE60
20:00 22.407710165ESE15ESE0
21:00 21.108110163ESE15ESE0
22:00 20.308310175SSE13S0
23:00 20.10.28210175ENE15S0
minuit 19.308410177SE15ESE0

Graphique du 21-06-2019

 

Serveur OMMA